Pagrindinis puslapis
METAR-TAF:

METAR-TAF

Oro uostai :

Ali Al Salem Air Base, Kuveitas

platuma: 29-20-48N, ilguma: 47-31-14E, Aukštis: 144 m

Dabartinis oras

Ataskaita buvo paskelbta 22 minutes, ne 03:58 UTC
Ramus vėjas
Temperatūra 16°C
Drėgmė 25%
Slėgis 1017 hPa
Matomumas 10 km arba daugiau
Giedras dangus

METAR: OKAS 300358Z 00000KT 9999 CLR 16/M04 A3004 RMK AO2A SLP170 T01641037 $

Laikas: 07:20 (04:20 UTC)

Prognozė

Ataskaita buvo paskelbta 5 valandos ir 20 minutes, ne 23:00 UTC
Prognozė galioja nuo 29 metu 23 UTC su 31 metu 05 UTC
Vėjas 6 kt iš Vakarų
Matomumas 10 km arba daugiau
Giedras dangus
Tapsmas
nuo 30 metu 07 UTC su 30 metu 08 UTC
Vėjas 6 kt nuo kintamojo kryptimis
Matomumas 10 km arba daugiau
Giedras dangus
Tapsmas
nuo 30 metu 19 UTC su 30 metu 20 UTC
Vėjas 6 kt iš Vakarų/Pietvakarių
Matomumas 10 km arba daugiau
Giedras dangus

TAF: OKAS 292300Z 2923/3105 26006KT 9999 SKC QNH3000INS BECMG 3007/3008 VRB06KT 9999 SKC QNH2998INS BECMG 3019/3020 24006KT 9999 SKC QNH3000INS TX32/3012Z TN14/3003Z

Orai ataskaitas ir orų prognozės (METAR, TAF).

turimą stotys yra geltonos ir raudonos taškus žemėlapyje.

Perkelti pele per norėdami pamatyti stoties vardą.

Tada spustelėkite, norėdami matyti oro stebėjimo ir prognozės.

Norėdami pakeisti žemėlapį: spustelėkite ant žalios mygtukų su juodo kryžiaus žemyn,; žalią mygtuką su brūkšneliu, jei norite nutolinti; arba žalių rodyklių gretimoms žemėlapius.


METAR-TAF: